Time;durP1;ratioP1;P1;durP2;ratioP2;P2;SDS_P1;SDS_P2;PMS_P1;PMS_P2;Temp;Humidity;BMP_temperature;BMP_pressure;BME280_temperature;BME280_humidity;BME280_pressure;Samples;Min_cycle;Max_cycle;Signal;HPM_P1;HPM_P2
2022/06/13 00:01:37;;;;;;;6.00;3.03;;;18.20;83.40;;;;;;4967565;28;20407;-68
2022/06/13 00:04:04;;;;;;;3.07;1.50;;;18.20;83.70;;;;;;4947834;28;20212;-68
2022/06/13 00:06:32;;;;;;;10.63;4.10;;;18.20;85.40;;;;;;4966792;28;20223;-70
2022/06/13 00:08:58;;;;;;;6.60;3.27;;;18.10;85.50;;;;;;4965028;28;20568;-69
2022/06/13 00:11:25;;;;;;;6.90;2.93;;;18.10;86.10;;;;;;4966606;28;20212;-70
2022/06/13 00:13:54;;;;;;;7.53;2.67;;;18.10;87.20;;;;;;4965119;28;20864;-70
2022/06/13 00:16:20;;;;;;;5.50;2.93;;;18.10;88.60;;;;;;4962250;28;20192;-69
2022/06/13 00:18:49;;;;;;;4.90;2.97;;;18.00;89.10;;;;;;4956445;28;20572;-69
2022/06/13 00:21:23;;;;;;;6.83;2.60;;;18.00;90.10;;;;;;4966817;28;20302;-70
2022/06/13 00:23:50;;;;;;;3.47;2.03;;;18.00;90.40;;;;;;4956435;28;20573;-69
2022/06/13 00:26:16;;;;;;;5.70;2.43;;;18.00;90.80;;;;;;4966425;28;20554;-69
2022/06/13 00:28:42;;;;;;;6.80;2.57;;;18.00;91.20;;;;;;4964691;28;20221;-69
2022/06/13 00:31:08;;;;;;;5.47;2.47;;;17.90;91.30;;;;;;4966087;28;20210;-70
2022/06/13 00:33:33;;;;;;;5.93;2.63;;;17.90;91.20;;;;;;4964762;28;20227;-69
2022/06/13 00:35:59;;;;;;;4.17;2.77;;;17.90;91.30;;;;;;4966434;28;20211;-69
2022/06/13 00:38:24;;;;;;;5.10;2.10;;;17.90;91.80;;;;;;4964187;28;20312;-69
2022/06/13 00:40:50;;;;;;;3.30;1.80;;;17.80;91.70;;;;;;4966331;28;20224;-69
2022/06/13 00:43:17;;;;;;;3.47;1.93;;;17.80;91.80;;;;;;4964444;28;20207;-71
2022/06/13 00:45:43;;;;;;;3.37;2.13;;;17.70;92.30;;;;;;4966261;28;20530;-73
2022/06/13 00:48:12;;;;;;;5.57;2.13;;;17.70;93.00;;;;;;4964226;28;20275;-72
2022/06/13 00:50:52;;;;;;;7.17;2.93;;;17.70;93.30;;;;;;4966513;28;20566;-72
2022/06/13 00:53:27;;;;;;;4.63;1.83;;;17.60;93.10;;;;;;4955619;28;20214;-72
2022/06/13 00:56:01;;;;;;;6.63;2.17;;;17.60;93.40;;;;;;4966348;28;20186;-72
2022/06/13 00:58:30;;;;;;;4.67;2.50;;;17.50;93.70;;;;;;4953279;28;20206;-73
2022/06/13 01:00:57;;;;;;;5.33;2.33;;;17.50;94.20;;;;;;4966124;28;20240;-71
2022/06/13 01:03:25;;;;;;;7.07;2.23;;;17.40;94.50;;;;;;4964185;28;20324;-72
2022/06/13 01:05:52;;;;;;;4.30;2.07;;;17.40;94.90;;;;;;4966018;28;20203;-72
2022/06/13 01:08:20;;;;;;;8.23;2.07;;;17.40;94.90;;;;;;4963938;28;20264;-72
2022/06/13 01:13:48;;;;;;;3.20;2.10;;;17.30;95.90;;;;;;4955188;28;20210;-69
2022/06/13 01:16:29;;;;;;;4.10;2.10;;;17.30;96.50;;;;;;4949799;28;20868;-70
2022/06/13 01:19:26;;;;;;;7.77;2.80;;;17.30;97.10;;;;;;4964539;28;20198;-70
2022/06/13 01:22:33;;;;;;;3.87;2.27;;;17.30;97.60;;;;;;4946887;29;20263;-69
2022/06/13 01:25:13;;;;;;;2.97;2.07;;;17.20;97.70;;;;;;4966370;28;20202;-66
2022/06/13 01:28:12;;;;;;;4.60;2.27;;;17.20;98.10;;;;;;4945948;28;20309;-68
2022/06/13 01:31:08;;;;;;;8.13;1.70;;;17.10;98.40;;;;;;4965694;28;20247;-70
2022/06/13 01:33:52;;;;;;;4.70;1.97;;;17.10;99.10;;;;;;4953535;28;20212;-70
2022/06/13 01:36:57;;;;;;;7.13;2.57;;;17.00;99.60;;;;;;4964885;28;20200;-70
2022/06/13 01:40:00;;;;;;;4.27;2.30;;;17.00;99.90;;;;;;4959800;28;20212;-68
2022/06/13 01:42:53;;;;;;;4.63;2.30;;;17.00;99.90;;;;;;4946692;28;20201;-67
2022/06/13 01:45:34;;;;;;;6.83;3.17;;;16.90;99.90;;;;;;4965712;28;20588;-67
2022/06/13 01:48:12;;;;;;;4.83;2.90;;;16.80;99.90;;;;;;4948606;28;21024;-68
2022/06/13 01:50:48;;;;;;;2.77;2.37;;;16.80;99.90;;;;;;4965458;28;20206;-69
2022/06/13 01:53:24;;;;;;;8.57;3.10;;;16.70;99.90;;;;;;4953922;28;20575;-66
2022/06/13 01:56:12;;;;;;;2.13;1.97;;;16.70;99.90;;;;;;4957694;28;20208;-68
2022/06/13 01:58:45;;;;;;;4.97;2.20;;;16.70;99.90;;;;;;4961964;28;20894;-66
2022/06/13 02:01:53;;;;;;;6.73;2.50;;;16.60;99.90;;;;;;4949630;29;20238;-68
2022/06/13 02:04:43;;;;;;;7.03;2.50;;;16.60;99.90;;;;;;4956763;28;20268;-67
2022/06/13 02:07:14;;;;;;;5.93;2.93;;;16.50;99.90;;;;;;4967519;28;20393;-68
2022/06/13 02:09:58;;;;;;;4.47;2.37;;;16.50;99.90;;;;;;4965320;28;20218;-67
2022/06/13 02:12:28;;;;;;;4.10;2.67;;;16.40;99.90;;;;;;4949827;29;20428;-67
2022/06/13 02:15:03;;;;;;;6.37;2.43;;;16.40;99.90;;;;;;4967380;28;20202;-67
2022/06/13 02:17:36;;;;;;;4.13;2.23;;;16.30;99.90;;;;;;4948680;28;20229;-67
2022/06/13 02:20:05;;;;;;;4.80;2.37;;;16.30;99.90;;;;;;4969138;28;20199;-67
2022/06/13 02:22:37;;;;;;;3.57;2.20;;;16.30;99.90;;;;;;4966831;28;20205;-67
2022/06/13 02:25:19;;;;;;;7.73;2.27;;;16.20;99.90;;;;;;4969697;28;20199;-67
2022/06/13 02:27:54;;;;;;;3.73;2.50;;;16.20;99.90;;;;;;4949730;28;20195;-67
2022/06/13 02:30:26;;;;;;;5.73;2.53;;;16.20;99.90;;;;;;4968499;28;20284;-67
2022/06/13 02:33:14;;;;;;;4.53;2.77;;;16.30;99.90;;;;;;4957734;28;20245;-67
2022/06/13 02:35:46;;;;;;;5.37;2.80;;;16.30;99.90;;;;;;4964343;28;20191;-67
2022/06/13 02:38:20;;;;;;;6.20;3.20;;;16.40;99.90;;;;;;4965285;28;20218;-67
2022/06/13 02:40:51;;;;;;;4.80;2.20;;;16.40;99.90;;;;;;4949421;29;20196;-68
2022/06/13 02:43:56;;;;;;;7.00;2.80;;;16.40;99.90;;;;;;4961652;28;20213;-67
2022/06/13 02:46:30;;;;;;;5.27;2.10;;;16.30;99.90;;;;;;4968289;28;20197;-67
2022/06/13 02:49:08;;;;;;;3.13;2.17;;;16.30;99.90;;;;;;4968591;28;20215;-68
2022/06/13 02:51:42;;;;;;;6.17;2.50;;;16.30;99.90;;;;;;4966368;28;20210;-67
2022/06/13 02:54:19;;;;;;;6.43;2.47;;;16.30;99.90;;;;;;4968159;28;20285;-71
2022/06/13 02:57:23;;;;;;;6.77;2.93;;;16.20;99.90;;;;;;4958113;28;20197;-70
2022/06/13 03:00:13;;;;;;;4.73;2.23;;;16.20;99.90;;;;;;4968198;28;20259;-69
2022/06/13 03:03:04;;;;;;;5.13;2.53;;;16.10;99.90;;;;;;4964991;28;20206;-69
2022/06/13 03:05:51;;;;;;;5.17;2.27;;;16.10;99.90;;;;;;4936558;28;20667;-69
2022/06/13 03:08:27;;;;;;;5.43;2.23;;;16.10;99.90;;;;;;4966120;28;20202;-69
2022/06/13 03:11:30;;;;;;;5.00;2.20;;;16.10;99.90;;;;;;4958025;28;20211;-67
2022/06/13 03:14:11;;;;;;;6.57;3.57;;;16.10;99.90;;;;;;4968007;28;20185;-67
2022/06/13 03:17:04;;;;;;;6.53;2.60;;;16.10;99.90;;;;;;4952908;28;20195;-68
2022/06/13 03:19:43;;;;;;;7.37;2.57;;;16.00;99.90;;;;;;4967564;28;20656;-69
2022/06/13 03:22:29;;;;;;;7.17;2.83;;;16.10;99.90;;;;;;4952760;28;20202;-64
2022/06/13 03:25:22;;;;;;;6.07;2.70;;;16.10;99.90;;;;;;4968160;28;20189;-68
2022/06/13 03:28:09;;;;;;;3.20;2.23;;;16.00;99.90;;;;;;4965881;28;20215;-68
2022/06/13 03:30:43;;;;;;;8.07;2.90;;;16.10;99.90;;;;;;4966114;28;20218;-68
2022/06/13 03:36:00;;;;;;;8.33;2.57;;;16.10;99.90;;;;;;4954128;28;20606;-68
2022/06/13 03:38:33;;;;;;;7.37;3.20;;;16.00;99.90;;;;;;4965507;28;20219;-68
2022/06/13 03:41:01;;;;;;;3.37;2.33;;;16.00;99.90;;;;;;4967443;28;20235;-69
2022/06/13 03:43:34;;;;;;;3.77;2.77;;;16.00;99.90;;;;;;4965354;28;20668;-69
2022/06/13 03:46:11;;;;;;;7.80;3.37;;;15.90;99.90;;;;;;4948256;29;20240;-69
2022/06/13 03:48:59;;;;;;;6.43;2.50;;;15.90;99.90;;;;;;4964249;28;20269;-68
2022/06/13 03:51:31;;;;;;;6.40;3.27;;;15.80;99.90;;;;;;4960384;28;20680;-69
2022/06/13 03:54:13;;;;;;;5.90;2.63;;;15.80;99.90;;;;;;4957023;28;20189;-69
2022/06/13 03:56:49;;;;;;;5.43;2.40;;;15.80;99.90;;;;;;4965166;28;20197;-69
2022/06/13 03:59:31;;;;;;;6.23;2.77;;;15.70;99.90;;;;;;4967107;28;20193;-61
2022/06/13 04:02:03;;;;;;;5.73;3.33;;;15.70;99.90;;;;;;4965102;28;20255;-69
2022/06/13 04:04:39;;;;;;;4.63;3.07;;;15.60;99.90;;;;;;4966976;28;20329;-70
2022/06/13 04:07:04;;;;;;;7.10;3.00;;;15.60;99.90;;;;;;4955945;28;20288;-69
2022/06/13 04:09:49;;;;;;;4.97;2.87;;;15.60;99.90;;;;;;4967261;28;20286;-69
2022/06/13 04:12:38;;;;;;;6.70;2.90;;;15.60;99.90;;;;;;4965119;28;20739;-68
2022/06/13 04:15:25;;;;;;;4.03;2.53;;;15.60;99.90;;;;;;4966443;28;20724;-69
2022/06/13 04:18:00;;;;;;;6.57;2.77;;;15.60;99.90;;;;;;4956721;28;20256;-69
2022/06/13 04:20:30;;;;;;;4.17;2.53;;;15.70;99.90;;;;;;4947437;29;20317;-69
2022/06/13 04:23:05;;;;;;;5.27;2.53;;;15.70;99.90;;;;;;4964735;28;20771;-68
2022/06/13 04:25:56;;;;;;;9.53;2.90;;;15.70;99.90;;;;;;4966571;28;20192;-68
2022/06/13 04:28:28;;;;;;;10.60;3.27;;;15.70;99.90;;;;;;4960740;28;20211;-68
2022/06/13 04:30:56;;;;;;;4.40;2.63;;;15.70;99.90;;;;;;4947455;29;20218;-69
2022/06/13 04:33:36;;;;;;;5.80;2.60;;;15.70;99.90;;;;;;4964229;28;20209;-69
2022/06/13 04:36:03;;;;;;;4.30;2.30;;;15.70;99.90;;;;;;4947548;29;20173;-68
2022/06/13 04:38:30;;;;;;;6.80;3.93;;;15.70;99.90;;;;;;4964203;28;20217;-69
2022/06/13 04:40:59;;;;;;;5.63;2.80;;;15.70;99.90;;;;;;4966402;28;20198;-69
2022/06/13 04:43:29;;;;;;;5.63;2.80;;;15.70;99.90;;;;;;4964550;28;20931;-69
2022/06/13 04:46:00;;;;;;;7.33;3.47;;;15.70;99.90;;;;;;4966190;28;20249;-70
2022/06/13 04:48:26;;;;;;;9.67;3.13;;;15.70;99.90;;;;;;4960788;28;20223;-69
2022/06/13 04:50:57;;;;;;;7.20;2.97;;;15.70;99.90;;;;;;4965922;28;20244;-68
2022/06/13 04:53:27;;;;;;;6.67;3.33;;;15.70;99.90;;;;;;4960484;28;20205;-68
2022/06/13 04:55:53;;;;;;;3.30;2.63;;;15.70;99.90;;;;;;4966363;28;20202;-69
2022/06/13 04:58:26;;;;;;;4.27;2.60;;;15.70;99.90;;;;;;4964667;28;20252;-69
2022/06/13 05:01:19;;;;;;;9.77;2.63;;;15.80;99.90;;;;;;4947060;29;20233;-67
2022/06/13 05:03:47;;;;;;;9.30;2.67;;;15.80;99.90;;;;;;4935118;28;20265;-67
2022/06/13 05:06:34;;;;;;;8.90;3.17;;;15.80;99.90;;;;;;4966090;28;20201;-67
2022/06/13 05:09:08;;;;;;;7.93;2.70;;;15.80;99.90;;;;;;4952388;28;20398;-68
2022/06/13 05:12:04;;;;;;;7.93;2.97;;;15.80;99.90;;;;;;4957933;28;20649;-68
2022/06/13 05:14:38;;;;;;;3.73;2.87;;;15.90;99.90;;;;;;4966390;28;20204;-68
2022/06/13 05:17:26;;;;;;;6.03;2.33;;;16.00;99.90;;;;;;4955304;28;20732;-65
2022/06/13 05:20:10;;;;;;;5.67;2.17;;;16.00;99.90;;;;;;4951503;28;20187;-65
2022/06/13 05:23:02;;;;;;;4.67;2.23;;;16.10;99.90;;;;;;4954091;28;20579;-66
2022/06/13 05:25:37;;;;;;;7.60;3.37;;;16.20;99.90;;;;;;4948142;28;20206;-67
2022/06/13 05:28:03;;;;;;;6.73;3.13;;;16.30;99.90;;;;;;4962022;28;20217;-69
2022/06/13 05:30:29;;;;;;;7.10;2.80;;;16.30;99.90;;;;;;4969862;28;20207;-69
2022/06/13 05:32:56;;;;;;;6.10;2.20;;;16.30;99.90;;;;;;4968044;28;20709;-69
2022/06/13 05:35:26;;;;;;;2.27;2.07;;;16.40;99.90;;;;;;4974952;28;20691;-68
2022/06/13 05:37:54;;;;;;;5.73;2.50;;;16.40;99.90;;;;;;4978461;28;20194;-66
2022/06/13 05:40:21;;;;;;;3.90;2.37;;;16.60;99.90;;;;;;4975190;28;20199;-68
2022/06/13 05:42:47;;;;;;;5.60;2.23;;;16.70;99.90;;;;;;4978154;28;20323;-68
2022/06/13 05:45:14;;;;;;;5.80;2.33;;;16.80;99.90;;;;;;4969785;28;20304;-68
2022/06/13 05:47:42;;;;;;;5.07;2.40;;;16.90;99.90;;;;;;4967223;28;20223;-69
2022/06/13 05:50:15;;;;;;;4.90;1.70;;;17.10;99.60;;;;;;4969356;28;20196;-69
2022/06/13 05:52:41;;;;;;;7.37;2.40;;;17.20;98.80;;;;;;4967483;28;20226;-66
2022/06/13 05:55:07;;;;;;;4.27;2.40;;;17.20;98.60;;;;;;4964732;28;20735;-65
2022/06/13 05:57:33;;;;;;;6.60;2.33;;;17.20;98.60;;;;;;4967504;28;20592;-65
2022/06/13 05:59:58;;;;;;;4.67;2.70;;;17.20;98.70;;;;;;4968536;28;20226;-67
2022/06/13 06:02:25;;;;;;;5.97;2.63;;;17.10;98.40;;;;;;4967380;28;20235;-68
2022/06/13 06:04:51;;;;;;;3.43;2.57;;;17.10;98.60;;;;;;4969559;28;20197;-67
2022/06/13 06:07:17;;;;;;;4.83;3.10;;;17.10;98.10;;;;;;4957743;28;20541;-69
2022/06/13 06:09:43;;;;;;;4.00;2.57;;;17.20;97.80;;;;;;4968950;28;20439;-68
2022/06/13 06:12:08;;;;;;;4.87;2.33;;;17.30;97.10;;;;;;4967342;28;20227;-68
2022/06/13 06:14:34;;;;;;;7.03;2.30;;;17.50;96.70;;;;;;4968845;28;20196;-68
2022/06/13 06:16:59;;;;;;;5.07;1.90;;;17.50;97.30;;;;;;4966596;28;20282;-69
2022/06/13 06:19:26;;;;;;;6.40;2.93;;;17.60;96.00;;;;;;4968762;28;20324;-68
2022/06/13 06:21:51;;;;;;;6.93;2.37;;;17.60;94.90;;;;;;4966717;28;20259;-67
2022/06/13 06:24:17;;;;;;;5.40;2.47;;;17.40;94.80;;;;;;4969060;28;20217;-69
2022/06/13 06:26:43;;;;;;;4.97;2.23;;;17.30;94.90;;;;;;4966889;28;20279;-71
2022/06/13 06:29:09;;;;;;;3.20;1.73;;;17.30;94.50;;;;;;4968839;28;20197;-70
2022/06/13 06:31:35;;;;;;;6.37;2.07;;;17.40;94.80;;;;;;4966700;28;20221;-68
2022/06/13 06:34:00;;;;;;;6.57;2.60;;;17.40;95.10;;;;;;4968682;28;20183;-68
2022/06/13 06:36:26;;;;;;;3.47;2.10;;;17.40;95.00;;;;;;4967933;28;20195;-69
2022/06/13 06:38:51;;;;;;;6.87;2.07;;;17.40;94.80;;;;;;4966442;28;20287;-69
2022/06/13 06:41:17;;;;;;;5.13;1.90;;;17.40;94.10;;;;;;4968761;28;20204;-69
2022/06/13 06:43:42;;;;;;;7.90;2.60;;;17.50;94.10;;;;;;4966328;28;20335;-68
2022/06/13 06:46:08;;;;;;;5.13;2.40;;;17.40;94.20;;;;;;4968252;28;20192;-67
2022/06/13 06:48:36;;;;;;;4.73;2.37;;;17.40;94.20;;;;;;4966404;28;20212;-68
2022/06/13 06:51:09;;;;;;;7.40;2.23;;;17.40;94.20;;;;;;4967964;28;20220;-68
2022/06/13 07:01:47;;;;;;;4.03;1.60;;;17.70;93.50;;;;;;4929746;28;20214;-68
2022/06/13 07:04:13;;;;;;;3.37;1.90;;;17.70;92.90;;;;;;4947032;29;20191;-68
2022/06/13 07:06:39;;;;;;;3.47;1.67;;;17.60;92.70;;;;;;4934394;28;20377;-69
2022/06/13 07:09:05;;;;;;;6.00;2.63;;;17.50;92.70;;;;;;4931758;29;20184;-71
2022/06/13 07:14:15;;;;;;;3.73;2.17;;;17.50;93.30;;;;;;4929781;29;20694;-69
2022/06/13 07:16:40;;;;;;;4.60;1.93;;;17.60;93.00;;;;;;4934338;29;20192;-69
2022/06/13 07:19:06;;;;;;;3.50;1.70;;;17.80;92.70;;;;;;4948429;29;20650;-69
2022/06/13 07:21:32;;;;;;;4.07;2.07;;;18.00;91.80;;;;;;4937720;28;20256;-70
2022/06/13 07:23:57;;;;;;;4.40;1.80;;;18.20;91.40;;;;;;4930459;29;20607;-69
2022/06/13 07:26:23;;;;;;;5.37;1.60;;;18.30;90.40;;;;;;4943806;29;20962;-69
2022/06/13 07:28:49;;;;;;;4.77;1.77;;;18.50;90.00;;;;;;4927747;29;20657;-69
2022/06/13 07:31:19;;;;;;;5.30;1.60;;;18.40;89.10;;;;;;4947275;29;20237;-69
2022/06/13 07:33:46;;;;;;;3.13;1.80;;;18.40;87.00;;;;;;4945059;29;20203;-69
2022/06/13 07:36:11;;;;;;;4.20;1.40;;;18.30;87.10;;;;;;4940887;29;20201;-68
2022/06/13 07:38:36;;;;;;;3.30;1.40;;;18.10;87.20;;;;;;4927993;29;20271;-69
2022/06/13 07:41:02;;;;;;;3.20;1.57;;;17.90;87.90;;;;;;4939815;28;20197;-69
2022/06/13 07:43:31;;;;;;;3.63;1.73;;;18.00;87.20;;;;;;4939277;28;20863;-68
2022/06/13 07:45:59;;;;;;;3.20;1.40;;;18.00;87.40;;;;;;4935936;29;20663;-68
2022/06/13 07:48:26;;;;;;;2.83;1.63;;;17.90;86.30;;;;;;4945106;28;20217;-69
2022/06/13 07:50:52;;;;;;;5.77;1.97;;;17.80;87.70;;;;;;4933863;28;20813;-70
2022/06/13 07:53:17;;;;;;;3.67;1.73;;;17.90;85.00;;;;;;4941942;29;20291;-74
2022/06/13 07:55:43;;;;;;;5.10;1.50;;;18.00;84.20;;;;;;4945428;29;20188;-68
2022/06/13 07:58:31;;;;;;;4.23;1.50;;;17.90;84.70;;;;;;4940928;28;20534;-68
2022/06/13 08:00:57;;;;;;;4.07;1.37;;;18.00;83.30;;;;;;4965727;28;20316;-68
2022/06/13 08:03:26;;;;;;;3.63;1.50;;;18.00;85.10;;;;;;4970294;28;20402;-68
2022/06/13 08:05:52;;;;;;;2.93;1.80;;;18.10;85.00;;;;;;4974777;28;20196;-75
2022/06/13 08:08:18;;;;;;;2.37;1.47;;;18.20;86.10;;;;;;4973622;28;20625;-74
2022/06/13 08:10:46;;;;;;;1.60;1.33;;;18.30;83.40;;;;;;4972114;28;20197;-67
2022/06/13 08:13:14;;;;;;;7.53;1.97;;;18.30;83.80;;;;;;4971889;28;20700;-67
2022/06/13 08:15:39;;;;;;;6.90;1.63;;;18.20;83.50;;;;;;4971654;28;20203;-69
2022/06/13 08:18:05;;;;;;;2.70;1.50;;;18.20;82.20;;;;;;4966174;28;20248;-68
2022/06/13 08:20:32;;;;;;;5.57;1.90;;;18.20;81.60;;;;;;4972802;28;20230;-68
2022/06/13 08:23:02;;;;;;;2.83;1.20;;;18.20;82.10;;;;;;4970532;28;20202;-69
2022/06/13 08:25:31;;;;;;;4.60;1.50;;;18.20;79.60;;;;;;4975231;28;20675;-67
2022/06/13 08:27:58;;;;;;;3.57;2.03;;;18.10;79.70;;;;;;4968583;28;20258;-68
2022/06/13 08:30:43;;;;;;;4.90;1.90;;;18.10;80.90;;;;;;4977449;28;20196;-67
2022/06/13 08:33:08;;;;;;;6.73;2.00;;;18.20;81.90;;;;;;4970023;28;20287;-69
2022/06/13 08:35:34;;;;;;;5.53;2.17;;;18.40;81.40;;;;;;4968108;28;20332;-69
2022/06/13 08:37:59;;;;;;;4.10;1.77;;;18.60;79.80;;;;;;4974053;28;20312;-67
2022/06/13 08:40:31;;;;;;;4.03;1.97;;;18.70;80.60;;;;;;4976631;28;20204;-69
2022/06/13 08:43:23;;;;;;;3.77;1.87;;;18.90;79.50;;;;;;4970140;28;20633;-67
2022/06/13 08:46:07;;;;;;;5.77;1.90;;;19.10;78.80;;;;;;4975756;28;20247;-69
2022/06/13 08:48:41;;;;;;;5.53;1.40;;;19.30;77.90;;;;;;4967325;28;20211;-75
2022/06/13 08:51:20;;;;;;;6.33;2.07;;;19.60;78.30;;;;;;4964005;28;20688;-68
2022/06/13 08:53:56;;;;;;;5.80;1.53;;;20.00;76.30;;;;;;4966156;28;20251;-69
2022/06/13 08:56:26;;;;;;;2.43;1.40;;;20.00;75.90;;;;;;4958776;28;20215;-69
2022/06/13 08:58:59;;;;;;;6.20;1.93;;;20.00;76.20;;;;;;4963708;28;20197;-69
2022/06/13 09:01:37;;;;;;;6.47;2.40;;;20.00;75.80;;;;;;4956126;28;20685;-69
2022/06/13 09:04:11;;;;;;;7.37;2.50;;;19.90;74.30;;;;;;4956885;28;20200;-69
2022/06/13 09:06:52;;;;;;;5.73;1.87;;;19.80;74.90;;;;;;4963034;28;20208;-68
2022/06/13 09:09:40;;;;;;;6.77;2.10;;;19.80;74.50;;;;;;4973763;28;20181;-69
2022/06/13 09:12:15;;;;;;;6.40;1.83;;;19.60;74.60;;;;;;4962790;28;20229;-69
2022/06/13 09:14:54;;;;;;;5.27;2.30;;;19.70;74.60;;;;;;4964458;28;20545;-69
2022/06/13 09:17:51;;;;;;;5.43;2.73;;;19.70;73.80;;;;;;4962926;28;20603;-71
2022/06/13 09:20:40;;;;;;;7.53;2.27;;;19.70;74.00;;;;;;4961976;28;20366;-70
2022/06/13 09:23:23;;;;;;;6.53;2.90;;;19.70;73.60;;;;;;4966268;28;20186;-69
2022/06/13 09:26:02;;;;;;;6.53;2.60;;;19.40;74.30;;;;;;4963954;28;20190;-69
2022/06/13 09:28:34;;;;;;;6.13;2.27;;;19.20;73.70;;;;;;4959760;28;21019;-67
2022/06/13 09:31:21;;;;;;;4.60;1.80;;;19.10;75.20;;;;;;4963822;28;20220;-68
2022/06/13 09:33:52;;;;;;;5.43;2.10;;;19.10;74.70;;;;;;4962777;28;20647;-69
2022/06/13 09:36:29;;;;;;;7.60;2.27;;;19.00;74.90;;;;;;4964198;28;20610;-68
2022/06/13 09:39:10;;;;;;;6.30;2.53;;;19.00;75.20;;;;;;4963412;28;20201;-68
2022/06/13 09:41:59;;;;;;;6.50;2.87;;;19.00;75.30;;;;;;4964646;28;20193;-67
2022/06/13 09:44:28;;;;;;;4.17;2.23;;;19.10;75.70;;;;;;4962445;28;20691;-68
2022/06/13 09:47:03;;;;;;;3.97;2.10;;;19.20;76.00;;;;;;4964769;28;20653;-69
2022/06/13 09:49:41;;;;;;;6.27;2.17;;;19.30;74.80;;;;;;4962559;28;20295;-70
2022/06/13 09:52:15;;;;;;;8.43;2.30;;;19.10;73.70;;;;;;4964500;28;20213;-68
2022/06/13 09:55:09;;;;;;;5.90;2.47;;;19.10;73.10;;;;;;4964121;28;20642;-69
2022/06/13 09:57:53;;;;;;;4.73;2.33;;;19.10;73.80;;;;;;4957797;28;20692;-69
2022/06/13 10:00:29;;;;;;;3.73;2.13;;;19.30;74.60;;;;;;4965381;28;20229;-70
2022/06/13 10:03:07;;;;;;;4.17;2.20;;;19.50;72.70;;;;;;4951208;28;20214;-69
2022/06/13 10:05:47;;;;;;;5.50;1.93;;;19.30;71.20;;;;;;4964929;28;20188;-69
2022/06/13 10:08:30;;;;;;;3.13;1.63;;;19.20;71.60;;;;;;4956098;28;20300;-69
2022/06/13 10:11:14;;;;;;;2.73;1.70;;;19.40;71.70;;;;;;4955042;28;20948;-69
2022/06/13 10:13:54;;;;;;;4.10;2.00;;;19.60;71.60;;;;;;4961955;28;20233;-70
2022/06/13 10:16:43;;;;;;;5.40;2.23;;;19.60;71.30;;;;;;4968962;28;20188;-70
2022/06/13 10:19:42;;;;;;;8.23;2.37;;;19.80;71.30;;;;;;4967115;28;20252;-69
2022/06/13 10:22:14;;;;;;;6.77;2.53;;;20.10;71.30;;;;;;4969007;28;20201;-68
2022/06/13 10:24:55;;;;;;;4.77;2.00;;;20.30;69.10;;;;;;4960157;28;20200;-70
2022/06/13 10:27:37;;;;;;;4.70;1.77;;;20.40;67.30;;;;;;4964144;28;20331;-70
2022/06/13 10:30:48;;;;;;;3.50;1.40;;;20.30;68.50;;;;;;4969562;28;20635;-70
2022/06/13 10:33:46;;;;;;;3.67;1.50;;;20.60;67.70;;;;;;4903788;29;20786;-69
2022/06/13 10:36:33;;;;;;;5.13;1.60;;;20.90;67.30;;;;;;4890083;29;20200;-70
2022/06/13 10:39:05;;;;;;;4.67;1.53;;;20.80;64.80;;;;;;4952588;28;20216;-69
2022/06/13 10:41:36;;;;;;;2.40;1.90;;;20.70;64.50;;;;;;4968630;28;20232;-69
2022/06/13 10:44:03;;;;;;;4.53;1.77;;;20.60;63.60;;;;;;4966822;28;20312;-69
2022/06/13 10:46:28;;;;;;;6.80;1.60;;;20.50;64.00;;;;;;4968728;28;20193;-69
2022/06/13 10:48:57;;;;;;;4.10;1.90;;;20.40;64.80;;;;;;4966843;28;20205;-69
2022/06/13 10:51:23;;;;;;;4.50;1.60;;;20.40;63.90;;;;;;4968110;28;20249;-69
2022/06/13 10:54:09;;;;;;;7.33;1.87;;;20.60;64.30;;;;;;4966723;28;20240;-69
2022/06/13 10:56:59;;;;;;;4.97;2.03;;;20.80;63.30;;;;;;4959629;28;20201;-69
2022/06/13 10:59:31;;;;;;;1.90;1.20;;;21.10;60.40;;;;;;4966318;28;20193;-69
2022/06/13 11:02:09;;;;;;;5.20;1.95;;;21.40;59.80;;;;;;4965901;28;20185;-68
2022/06/13 11:04:36;;;;;;;2.70;1.58;;;21.80;59.50;;;;;;4967276;28;20284;-68
2022/06/13 11:07:10;;;;;;;7.73;1.63;;;21.60;59.60;;;;;;4967885;28;20197;-67
2022/06/13 11:09:42;;;;;;;3.63;1.80;;;21.90;60.50;;;;;;4965762;28;20224;-68
2022/06/13 11:12:26;;;;;;;3.67;1.58;;;22.90;61.20;;;;;;4973333;28;20194;-68
2022/06/13 11:24:02;;;;;;;3.42;1.95;;;23.80;58.50;;;;;;4970612;28;20217;-67
2022/06/13 11:29:22;;;;;;;4.65;1.38;;;24.30;52.40;;;;;;4960215;28;20350;-69
2022/06/13 11:31:59;;;;;;;3.50;1.90;;;23.90;53.70;;;;;;4967295;28;20308;-68
2022/06/13 11:34:34;;;;;;;2.88;1.88;;;23.50;54.30;;;;;;4963585;28;20834;-68
2022/06/13 11:37:17;;;;;;;2.30;1.45;;;23.30;55.80;;;;;;4952713;28;20198;-69
2022/06/13 11:39:46;;;;;;;4.00;1.58;;;24.20;55.40;;;;;;4966416;28;20195;-67
2022/06/13 11:42:22;;;;;;;4.43;2.22;;;25.20;53.00;;;;;;4963802;28;20271;-71
2022/06/13 11:44:58;;;;;;;4.05;1.90;;;25.20;52.00;;;;;;4966059;28;20757;-71
2022/06/13 11:47:24;;;;;;;2.97;1.95;;;25.40;52.70;;;;;;4964645;28;20682;-71
2022/06/13 11:49:55;;;;;;;8.23;1.88;;;25.60;51.20;;;;;;4967474;28;20243;-70
2022/06/13 11:55:25;;;;;;;10.82;2.80;;;25.80;49.40;;;;;;4956563;28;20189;-69
2022/06/13 11:57:54;;;;;;;4.07;2.17;;;25.60;49.80;;;;;;4962033;28;20202;-71
2022/06/13 12:00:19;;;;;;;3.92;1.80;;;25.30;48.90;;;;;;4966775;28;20731;-71
2022/06/13 12:02:49;;;;;;;2.50;1.90;;;25.00;48.90;;;;;;4960397;28;20209;-71
2022/06/13 12:05:20;;;;;;;4.63;2.00;;;24.30;50.10;;;;;;4966591;28;20216;-71
2022/06/13 12:08:02;;;;;;;5.95;2.17;;;23.60;51.50;;;;;;4959370;28;20202;-70
2022/06/13 12:10:36;;;;;;;7.07;2.30;;;22.60;54.20;;;;;;4966639;28;20201;-68
2022/06/13 12:13:03;;;;;;;9.15;2.55;;;21.60;56.20;;;;;;4972903;28;20219;-68
2022/06/13 12:15:37;;;;;;;12.05;3.05;;;21.10;57.00;;;;;;4958298;28;20208;-67
2022/06/13 12:18:32;;;;;;;8.63;1.97;;;20.80;58.60;;;;;;4961144;28;20212;-67
2022/06/13 12:21:13;;;;;;;6.90;1.80;;;20.50;59.00;;;;;;4952466;28;20284;-67
2022/06/13 12:23:54;;;;;;;6.73;1.73;;;20.30;58.40;;;;;;4967048;28;20229;-67
2022/06/13 12:27:12;;;;;;;1.93;1.10;;;20.10;58.10;;;;;;4957850;28;20189;-68
2022/06/13 12:29:53;;;;;;;5.33;1.40;;;19.80;60.00;;;;;;4943810;28;20201;-69
2022/06/13 12:32:29;;;;;;;5.47;1.73;;;19.70;60.40;;;;;;4955173;28;20220;-69
2022/06/13 12:35:29;;;;;;;1.13;1.03;;;19.90;59.40;;;;;;4959033;28;20205;-70
2022/06/13 12:38:13;;;;;;;2.93;1.17;;;20.20;57.90;;;;;;4954824;28;20201;-73
2022/06/13 12:40:54;;;;;;;0.90;0.90;;;20.90;56.70;;;;;;4965895;28;20193;-70
2022/06/13 12:43:53;;;;;;;4.10;1.05;;;21.80;54.60;;;;;;4962848;28;21311;-70
2022/06/13 12:46:44;;;;;;;2.65;1.33;;;22.70;53.10;;;;;;4956942;28;20193;-70
2022/06/13 12:49:53;;;;;;;2.45;1.20;;;23.10;52.00;;;;;;4966150;28;20205;-70
2022/06/13 12:52:53;;;;;;;1.88;1.48;;;22.70;52.10;;;;;;4960854;28;20725;-67
2022/06/13 12:55:29;;;;;;;1.58;1.00;;;22.00;53.70;;;;;;4946828;29;20190;-68
2022/06/13 12:58:09;;;;;;;3.40;1.20;;;21.70;54.60;;;;;;4959210;28;20197;-70
2022/06/13 13:00:45;;;;;;;3.50;1.20;;;21.40;55.20;;;;;;4960376;28;20229;-66
2022/06/13 13:03:21;;;;;;;1.33;1.17;;;21.20;55.70;;;;;;4963614;28;20210;-66
2022/06/13 13:06:21;;;;;;;2.80;1.73;;;21.10;56.60;;;;;;4958455;28;20213;-66
2022/06/13 13:09:22;;;;;;;4.10;1.88;;;21.20;57.40;;;;;;4958843;28;20190;-67
2022/06/13 13:12:10;;;;;;;3.17;1.55;;;21.50;59.20;;;;;;4964292;28;20349;-67
2022/06/13 13:15:05;;;;;;;2.03;1.13;;;21.50;60.40;;;;;;4965962;28;20198;-67
2022/06/13 13:17:44;;;;;;;3.47;1.63;;;21.30;61.30;;;;;;4956288;28;20307;-67
2022/06/13 13:20:31;;;;;;;3.77;1.30;;;21.40;61.10;;;;;;4953539;28;20189;-68
2022/06/13 13:23:03;;;;;;;1.43;1.07;;;21.20;60.30;;;;;;4959444;28;20726;-68
2022/06/13 13:25:28;;;;;;;2.70;1.23;;;20.80;61.60;;;;;;4966012;28;20244;-68
2022/06/13 13:28:28;;;;;;;3.13;1.47;;;21.00;62.10;;;;;;4964267;28;20276;-68
2022/06/13 13:31:06;;;;;;;1.85;1.25;;;21.60;61.60;;;;;;4959395;28;20264;-68
2022/06/13 13:34:09;;;;;;;1.33;1.05;;;22.20;59.30;;;;;;4966369;28;20217;-68
2022/06/13 13:37:12;;;;;;;3.53;1.20;;;22.60;59.70;;;;;;4955126;28;20206;-73
2022/06/13 13:39:46;;;;;;;0.82;0.82;;;24.00;56.90;;;;;;4965883;28;20628;-72
2022/06/13 13:42:21;;;;;;;1.85;1.20;;;24.70;55.40;;;;;;4955701;28;20754;-68
2022/06/13 13:45:01;;;;;;;4.72;1.30;;;24.50;54.30;;;;;;4966868;28;20285;-69
2022/06/13 13:47:31;;;;;;;1.33;1.23;;;24.20;56.40;;;;;;4964396;28;20260;-73
2022/06/13 13:50:04;;;;;;;2.00;1.23;;;24.50;54.70;;;;;;4977603;28;20680;-71
2022/06/13 13:52:35;;;;;;;3.03;1.13;;;25.10;54.70;;;;;;4975248;28;20409;-71
2022/06/13 13:55:05;;;;;;;1.33;1.33;;;25.60;53.10;;;;;;4975676;28;20212;-70
2022/06/13 13:57:47;;;;;;;1.75;0.98;;;25.80;53.40;;;;;;4974657;28;20295;-70
2022/06/13 14:00:20;;;;;;;1.17;0.90;;;26.60;52.30;;;;;;4978352;28;20569;-71
2022/06/13 14:03:06;;;;;;;1.27;1.17;;;26.90;51.80;;;;;;4978978;28;20197;-71